Powers, Michigan
Current Conditions -  °F | °C
As of 8:15 AM on Thursday 29 Jan 2015 (Local Time) from KESC Reporting Station
Overcast Overcast  
Wind Chill: -7°   Ceiling: 2000
Heat Index: -2°   Visibility: 7mi
Dew Point: -4°   Wind: 10mph
Humidity: 86%   Direction: 310°NW
Pressure: 29.81"   Gusts: NA
Location:  45.69°N, 87.53°W
Report Text: KESC 291415Z AUTO 31009KT 7SM BKN020 OVC050 M02/M04 A2981 RMK AO1
Loading
Personal Weather Stations






























Interactive Weather Map New forecast layout! Learn more

10-Day Weather Forecast

Advertisements
Track Severe Weather on mobile